sensor_id;sensor_type;location;lat;lon;timestamp;P1;P2;P0
76784;PMS7003;66893;44.316;0.092;2023-03-14T00:01:22;2.75;2.00;1.00
76784;PMS7003;66893;44.316;0.092;2023-03-14T00:03:48;3.75;2.00;1.00
76784;PMS7003;66893;44.316;0.092;2023-03-14T00:06:14;1.00;0.75;0.00
76784;PMS7003;66893;44.316;0.092;2023-03-14T00:08:41;3.00;1.00;1.00
76784;PMS7003;66893;44.316;0.092;2023-03-14T00:11:09;4.00;1.00;1.00
76784;PMS7003;66893;44.316;0.092;2023-03-14T00:13:37;2.25;1.00;0.25
76784;PMS7003;66893;44.316;0.092;2023-03-14T00:16:06;0.75;0.75;0.00
76784;PMS7003;66893;44.316;0.092;2023-03-14T00:18:36;1.25;1.25;0.00
76784;PMS7003;66893;44.316;0.092;2023-03-14T00:21:03;1.00;1.00;1.00
76784;PMS7003;66893;44.316;0.092;2023-03-14T00:23:30;4.50;1.00;0.25
76784;PMS7003;66893;44.316;0.092;2023-03-14T00:26:00;4.00;0.00;0.00
76784;PMS7003;66893;44.316;0.092;2023-03-14T00:28:27;4.50;1.00;0.00
76784;PMS7003;66893;44.316;0.092;2023-03-14T00:30:53;1.25;0.00;0.00
76784;PMS7003;66893;44.316;0.092;2023-03-14T00:33:19;2.00;1.00;0.00
76784;PMS7003;66893;44.316;0.092;2023-03-14T00:36:06;0.00;0.00;0.00
76784;PMS7003;66893;44.316;0.092;2023-03-14T00:38:37;0.50;0.50;0.00
76784;PMS7003;66893;44.316;0.092;2023-03-14T00:41:04;4.25;0.50;0.00
76784;PMS7003;66893;44.316;0.092;2023-03-14T00:43:31;2.25;1.50;1.00
76784;PMS7003;66893;44.316;0.092;2023-03-14T00:45:57;2.25;1.00;0.25
76784;PMS7003;66893;44.316;0.092;2023-03-14T00:48:23;1.50;1.00;0.50
76784;PMS7003;66893;44.316;0.092;2023-03-14T00:50:48;4.50;1.00;0.00
76784;PMS7003;66893;44.316;0.092;2023-03-14T00:53:14;1.75;1.50;1.00
76784;PMS7003;66893;44.316;0.092;2023-03-14T00:55:41;4.25;2.00;1.00
76784;PMS7003;66893;44.316;0.092;2023-03-14T00:58:07;3.50;2.00;0.50
76784;PMS7003;66893;44.316;0.092;2023-03-14T01:00:34;4.75;1.75;1.00
76784;PMS7003;66893;44.316;0.092;2023-03-14T01:02:59;3.25;2.00;1.00
76784;PMS7003;66893;44.316;0.092;2023-03-14T01:05:28;4.00;2.00;1.00
76784;PMS7003;66893;44.316;0.092;2023-03-14T01:07:54;5.00;2.00;1.00
76784;PMS7003;66893;44.316;0.092;2023-03-14T01:10:20;12.50;2.50;1.00
76784;PMS7003;66893;44.316;0.092;2023-03-14T01:12:45;11.00;3.00;1.00
76784;PMS7003;66893;44.316;0.092;2023-03-14T01:15:11;4.50;3.00;1.00
76784;PMS7003;66893;44.316;0.092;2023-03-14T01:17:36;3.25;3.00;2.00
76784;PMS7003;66893;44.316;0.092;2023-03-14T01:20:05;2.75;2.25;1.50
76784;PMS7003;66893;44.316;0.092;2023-03-14T01:22:34;2.00;2.00;1.00
76784;PMS7003;66893;44.316;0.092;2023-03-14T01:25:01;2.75;2.25;1.00
76784;PMS7003;66893;44.316;0.092;2023-03-14T01:27:26;7.25;4.25;1.00
76784;PMS7003;66893;44.316;0.092;2023-03-14T01:29:52;5.00;2.75;1.00
76784;PMS7003;66893;44.316;0.092;2023-03-14T01:32:17;9.50;4.50;1.50
76784;PMS7003;66893;44.316;0.092;2023-03-14T01:34:43;3.25;1.75;1.00
76784;PMS7003;66893;44.316;0.092;2023-03-14T01:37:08;5.00;3.00;1.25
76784;PMS7003;66893;44.316;0.092;2023-03-14T01:39:34;6.25;3.75;1.00
76784;PMS7003;66893;44.316;0.092;2023-03-14T01:42:00;5.00;3.75;1.00
76784;PMS7003;66893;44.316;0.092;2023-03-14T01:44:26;4.25;2.25;1.00
76784;PMS7003;66893;44.316;0.092;2023-03-14T01:46:51;3.00;2.25;1.00
76784;PMS7003;66893;44.316;0.092;2023-03-14T01:49:33;3.00;1.75;1.00
76784;PMS7003;66893;44.316;0.092;2023-03-14T01:52:05;4.75;2.00;1.00
76784;PMS7003;66893;44.316;0.092;2023-03-14T01:54:42;5.50;2.00;1.00
76784;PMS7003;66893;44.316;0.092;2023-03-14T01:57:16;2.50;2.00;1.00
76784;PMS7003;66893;44.316;0.092;2023-03-14T01:59:47;6.75;2.25;1.00
76784;PMS7003;66893;44.316;0.092;2023-03-14T02:02:21;5.00;2.00;1.25
76784;PMS7003;66893;44.316;0.092;2023-03-14T02:04:48;5.50;2.25;1.25
76784;PMS7003;66893;44.316;0.092;2023-03-14T02:07:19;3.25;2.00;1.00
76784;PMS7003;66893;44.316;0.092;2023-03-14T02:09:48;4.25;2.00;1.00
76784;PMS7003;66893;44.316;0.092;2023-03-14T02:12:15;5.50;2.25;1.00
76784;PMS7003;66893;44.316;0.092;2023-03-14T02:14:42;5.75;3.00;1.00
76784;PMS7003;66893;44.316;0.092;2023-03-14T02:17:13;4.25;1.00;0.50
76784;PMS7003;66893;44.316;0.092;2023-03-14T02:19:47;6.50;1.50;1.00
76784;PMS7003;66893;44.316;0.092;2023-03-14T02:22:23;8.50;4.75;1.75
76784;PMS7003;66893;44.316;0.092;2023-03-14T02:27:53;2.50;2.00;1.00
76784;PMS7003;66893;44.316;0.092;2023-03-14T02:32:47;4.25;2.50;1.00
76784;PMS7003;66893;44.316;0.092;2023-03-14T02:35:15;4.50;2.25;1.25
76784;PMS7003;66893;44.316;0.092;2023-03-14T02:37:47;5.50;2.00;1.00
76784;PMS7003;66893;44.316;0.092;2023-03-14T02:40:18;7.25;2.75;1.75
76784;PMS7003;66893;44.316;0.092;2023-03-14T02:42:43;9.00;3.00;1.00
76784;PMS7003;66893;44.316;0.092;2023-03-14T02:47:34;5.00;2.25;1.00
76784;PMS7003;66893;44.316;0.092;2023-03-14T02:50:06;5.50;2.50;1.00
76784;PMS7003;66893;44.316;0.092;2023-03-14T02:52:37;4.75;2.75;0.75
76784;PMS7003;66893;44.316;0.092;2023-03-14T02:55:03;3.00;3.00;1.00
76784;PMS7003;66893;44.316;0.092;2023-03-14T02:57:29;3.75;2.00;1.00
76784;PMS7003;66893;44.316;0.092;2023-03-14T02:59:57;7.00;3.25;1.75
76784;PMS7003;66893;44.316;0.092;2023-03-14T03:02:24;5.50;2.25;1.00
76784;PMS7003;66893;44.316;0.092;2023-03-14T03:04:50;9.00;6.25;2.00
76784;PMS7003;66893;44.316;0.092;2023-03-14T03:07:15;6.75;4.00;1.00
76784;PMS7003;66893;44.316;0.092;2023-03-14T03:09:41;4.50;2.75;2.00
76784;PMS7003;66893;44.316;0.092;2023-03-14T03:12:06;4.25;2.25;1.00
76784;PMS7003;66893;44.316;0.092;2023-03-14T03:14:32;8.50;4.00;1.75
76784;PMS7003;66893;44.316;0.092;2023-03-14T03:16:57;6.00;4.00;1.75
76784;PMS7003;66893;44.316;0.092;2023-03-14T03:19:23;7.50;4.00;1.75
76784;PMS7003;66893;44.316;0.092;2023-03-14T03:21:48;6.00;2.75;1.25
76784;PMS7003;66893;44.316;0.092;2023-03-14T03:24:13;3.75;1.25;0.00
76784;PMS7003;66893;44.316;0.092;2023-03-14T03:26:39;2.25;2.00;0.75
76784;PMS7003;66893;44.316;0.092;2023-03-14T03:29:05;3.25;2.00;0.75
76784;PMS7003;66893;44.316;0.092;2023-03-14T03:31:30;5.00;4.50;0.75
76784;PMS7003;66893;44.316;0.092;2023-03-14T03:33:56;6.50;2.00;1.00
76784;PMS7003;66893;44.316;0.092;2023-03-14T03:36:23;4.50;3.25;1.50
76784;PMS7003;66893;44.316;0.092;2023-03-14T03:38:49;4.75;2.75;1.00
76784;PMS7003;66893;44.316;0.092;2023-03-14T03:41:15;3.00;1.75;0.50
76784;PMS7003;66893;44.316;0.092;2023-03-14T03:43:40;2.75;2.50;1.00
76784;PMS7003;66893;44.316;0.092;2023-03-14T03:46:06;4.75;2.00;0.75
76784;PMS7003;66893;44.316;0.092;2023-03-14T03:48:32;3.25;2.00;0.75
76784;PMS7003;66893;44.316;0.092;2023-03-14T03:50:58;2.00;2.00;0.75
76784;PMS7003;66893;44.316;0.092;2023-03-14T03:53:23;2.25;1.75;0.00
76784;PMS7003;66893;44.316;0.092;2023-03-14T03:55:49;6.50;1.75;0.75
76784;PMS7003;66893;44.316;0.092;2023-03-14T03:58:14;5.75;2.00;1.00
76784;PMS7003;66893;44.316;0.092;2023-03-14T04:00:40;4.50;3.50;1.00
76784;PMS7003;66893;44.316;0.092;2023-03-14T04:03:05;3.00;1.50;0.50
76784;PMS7003;66893;44.316;0.092;2023-03-14T04:05:31;2.25;1.75;0.75
76784;PMS7003;66893;44.316;0.092;2023-03-14T04:07:57;7.75;2.25;1.50
76784;PMS7003;66893;44.316;0.092;2023-03-14T04:10:22;3.75;1.50;0.75
76784;PMS7003;66893;44.316;0.092;2023-03-14T04:12:48;4.50;2.50;1.00
76784;PMS7003;66893;44.316;0.092;2023-03-14T04:15:13;3.25;2.75;0.75
76784;PMS7003;66893;44.316;0.092;2023-03-14T04:17:39;6.00;2.75;1.00
76784;PMS7003;66893;44.316;0.092;2023-03-14T04:20:04;3.00;2.50;0.75
76784;PMS7003;66893;44.316;0.092;2023-03-14T04:22:35;2.75;1.75;1.00
76784;PMS7003;66893;44.316;0.092;2023-03-14T04:25:02;6.75;2.00;1.00
76784;PMS7003;66893;44.316;0.092;2023-03-14T04:27:28;6.00;2.00;1.00
76784;PMS7003;66893;44.316;0.092;2023-03-14T04:29:54;4.75;3.00;1.00
76784;PMS7003;66893;44.316;0.092;2023-03-14T04:32:19;7.00;2.75;0.75
76784;PMS7003;66893;44.316;0.092;2023-03-14T04:34:45;1.25;1.00;0.75
76784;PMS7003;66893;44.316;0.092;2023-03-14T04:37:10;2.00;2.00;0.25
76784;PMS7003;66893;44.316;0.092;2023-03-14T04:39:36;4.00;1.00;0.50
76784;PMS7003;66893;44.316;0.092;2023-03-14T04:42:01;4.75;2.00;0.75
76784;PMS7003;66893;44.316;0.092;2023-03-14T04:44:27;8.25;1.75;0.75
76784;PMS7003;66893;44.316;0.092;2023-03-14T04:46:52;2.00;1.00;0.00
76784;PMS7003;66893;44.316;0.092;2023-03-14T04:49:18;0.00;0.00;0.00
76784;PMS7003;66893;44.316;0.092;2023-03-14T04:51:43;3.25;0.75;0.25
76784;PMS7003;66893;44.316;0.092;2023-03-14T04:54:09;0.75;0.75;0.00
76784;PMS7003;66893;44.316;0.092;2023-03-14T04:56:34;1.50;1.00;0.75
76784;PMS7003;66893;44.316;0.092;2023-03-14T04:59:00;2.75;1.00;0.00
76784;PMS7003;66893;44.316;0.092;2023-03-14T05:01:26;2.00;1.75;0.75
76784;PMS7003;66893;44.316;0.092;2023-03-14T05:03:51;3.75;1.75;0.75
76784;PMS7003;66893;44.316;0.092;2023-03-14T05:06:16;4.00;0.50;0.00
76784;PMS7003;66893;44.316;0.092;2023-03-14T05:08:42;1.75;1.75;0.75
76784;PMS7003;66893;44.316;0.092;2023-03-14T05:11:09;4.75;1.75;1.75
76784;PMS7003;66893;44.316;0.092;2023-03-14T05:13:35;4.50;0.75;0.50
76784;PMS7003;66893;44.316;0.092;2023-03-14T05:16:07;2.50;2.00;0.50
76784;PMS7003;66893;44.316;0.092;2023-03-14T05:18:34;2.50;1.25;0.50
76784;PMS7003;66893;44.316;0.092;2023-03-14T05:21:00;4.00;0.75;0.50
76784;PMS7003;66893;44.316;0.092;2023-03-14T05:23:25;2.75;1.00;0.75
76784;PMS7003;66893;44.316;0.092;2023-03-14T05:25:51;1.00;1.00;0.00
76784;PMS7003;66893;44.316;0.092;2023-03-14T05:28:16;1.75;0.00;0.00
76784;PMS7003;66893;44.316;0.092;2023-03-14T05:30:42;1.00;0.75;0.00
76784;PMS7003;66893;44.316;0.092;2023-03-14T05:33:07;6.00;1.75;1.75
76784;PMS7003;66893;44.316;0.092;2023-03-14T05:35:33;2.50;0.75;0.25
76784;PMS7003;66893;44.316;0.092;2023-03-14T05:37:59;3.75;1.00;0.25
76784;PMS7003;66893;44.316;0.092;2023-03-14T05:40:25;1.75;1.50;0.75
76784;PMS7003;66893;44.316;0.092;2023-03-14T05:42:50;3.00;2.00;0.75
76784;PMS7003;66893;44.316;0.092;2023-03-14T05:45:16;1.75;1.75;0.75
76784;PMS7003;66893;44.316;0.092;2023-03-14T05:47:41;2.00;2.00;0.75
76784;PMS7003;66893;44.316;0.092;2023-03-14T05:50:07;3.00;1.75;0.75
76784;PMS7003;66893;44.316;0.092;2023-03-14T05:52:33;3.50;1.75;0.50
76784;PMS7003;66893;44.316;0.092;2023-03-14T05:54:58;2.00;1.75;0.00
76784;PMS7003;66893;44.316;0.092;2023-03-14T05:57:24;2.00;1.25;0.75
76784;PMS7003;66893;44.316;0.092;2023-03-14T05:59:49;2.75;1.75;1.00
76784;PMS7003;66893;44.316;0.092;2023-03-14T06:02:15;4.00;2.00;0.75
76784;PMS7003;66893;44.316;0.092;2023-03-14T06:04:40;6.00;1.75;0.75
76784;PMS7003;66893;44.316;0.092;2023-03-14T06:07:05;7.75;2.50;1.00
76784;PMS7003;66893;44.316;0.092;2023-03-14T06:09:31;4.00;2.00;0.50
76784;PMS7003;66893;44.316;0.092;2023-03-14T06:11:56;3.50;2.25;0.50
76784;PMS7003;66893;44.316;0.092;2023-03-14T06:14:22;4.75;2.50;0.75
76784;PMS7003;66893;44.316;0.092;2023-03-14T06:16:47;3.00;1.00;0.50
76784;PMS7003;66893;44.316;0.092;2023-03-14T06:19:14;4.50;2.25;1.25
76784;PMS7003;66893;44.316;0.092;2023-03-14T06:21:39;6.25;3.00;1.75
76784;PMS7003;66893;44.316;0.092;2023-03-14T06:24:05;5.50;2.50;1.00
76784;PMS7003;66893;44.316;0.092;2023-03-14T06:26:30;5.50;3.50;0.50
76784;PMS7003;66893;44.316;0.092;2023-03-14T06:28:56;5.00;1.75;0.00
76784;PMS7003;66893;44.316;0.092;2023-03-14T06:31:21;5.25;3.25;1.25
76784;PMS7003;66893;44.316;0.092;2023-03-14T06:33:47;7.00;4.25;1.25
76784;PMS7003;66893;44.316;0.092;2023-03-14T06:36:12;5.00;4.25;1.50
76784;PMS7003;66893;44.316;0.092;2023-03-14T06:38:38;6.00;3.75;1.50
76784;PMS7003;66893;44.316;0.092;2023-03-14T06:41:04;8.00;4.00;1.50
76784;PMS7003;66893;44.316;0.092;2023-03-14T06:43:30;10.75;5.25;1.75
76784;PMS7003;66893;44.316;0.092;2023-03-14T06:45:56;7.50;3.00;2.00
76784;PMS7003;66893;44.316;0.092;2023-03-14T06:48:21;7.00;3.50;1.25
76784;PMS7003;66893;44.316;0.092;2023-03-14T06:50:50;9.75;3.50;1.25
76784;PMS7003;66893;44.316;0.092;2023-03-14T06:53:15;8.25;3.75;1.75
76784;PMS7003;66893;44.316;0.092;2023-03-14T06:55:41;6.00;4.00;2.00
76784;PMS7003;66893;44.316;0.092;2023-03-14T06:58:08;6.75;3.50;1.50
76784;PMS7003;66893;44.316;0.092;2023-03-14T07:00:34;9.00;4.50;1.75
76784;PMS7003;66893;44.316;0.092;2023-03-14T07:03:00;8.75;3.25;1.00
76784;PMS7003;66893;44.316;0.092;2023-03-14T07:05:25;3.50;3.00;2.00
76784;PMS7003;66893;44.316;0.092;2023-03-14T07:07:51;8.00;4.50;2.50
76784;PMS7003;66893;44.316;0.092;2023-03-14T07:10:16;8.75;4.00;1.25
76784;PMS7003;66893;44.316;0.092;2023-03-14T07:12:42;5.00;4.25;2.25
76784;PMS7003;66893;44.316;0.092;2023-03-14T07:15:08;8.00;3.00;1.25
76784;PMS7003;66893;44.316;0.092;2023-03-14T07:17:34;7.75;5.00;2.50
76784;PMS7003;66893;44.316;0.092;2023-03-14T07:19:59;7.75;4.00;2.25
76784;PMS7003;66893;44.316;0.092;2023-03-14T07:22:25;14.75;9.25;4.75
76784;PMS7003;66893;44.316;0.092;2023-03-14T07:24:51;17.00;10.50;7.50
76784;PMS7003;66893;44.316;0.092;2023-03-14T07:27:16;10.75;9.50;6.00
76784;PMS7003;66893;44.316;0.092;2023-03-14T07:29:42;10.50;8.25;5.50
76784;PMS7003;66893;44.316;0.092;2023-03-14T07:32:07;7.50;7.00;4.75
76784;PMS7003;66893;44.316;0.092;2023-03-14T07:34:33;12.75;10.25;5.50
76784;PMS7003;66893;44.316;0.092;2023-03-14T07:36:59;6.75;4.75;3.25
76784;PMS7003;66893;44.316;0.092;2023-03-14T07:39:24;12.25;8.75;6.25
76784;PMS7003;66893;44.316;0.092;2023-03-14T07:41:50;4.25;3.00;1.25
76784;PMS7003;66893;44.316;0.092;2023-03-14T07:44:15;4.25;3.00;1.50
76784;PMS7003;66893;44.316;0.092;2023-03-14T07:46:41;6.00;4.50;3.25
76784;PMS7003;66893;44.316;0.092;2023-03-14T07:49:07;9.50;5.00;1.75
76784;PMS7003;66893;44.316;0.092;2023-03-14T07:51:32;4.75;2.75;1.50
76784;PMS7003;66893;44.316;0.092;2023-03-14T07:53:58;10.00;3.50;1.25
76784;PMS7003;66893;44.316;0.092;2023-03-14T07:56:23;7.00;3.75;2.25
76784;PMS7003;66893;44.316;0.092;2023-03-14T07:58:48;4.50;4.50;2.00
76784;PMS7003;66893;44.316;0.092;2023-03-14T08:01:14;9.50;4.75;3.00
76784;PMS7003;66893;44.316;0.092;2023-03-14T08:03:39;10.00;4.50;2.50
76784;PMS7003;66893;44.316;0.092;2023-03-14T08:06:05;4.75;3.00;2.00
76784;PMS7003;66893;44.316;0.092;2023-03-14T08:08:31;6.75;4.75;2.75
